sensor_id;sensor_type;location;lat;lon;timestamp;P1;durP1;ratioP1;P2;durP2;ratioP2
5869;SDS011;2961;47.702;9.410;2024-02-04T00:00:54;9.50;;;5.87;;
5869;SDS011;2961;47.702;9.410;2024-02-04T00:03:22;8.23;;;6.10;;
5869;SDS011;2961;47.702;9.410;2024-02-04T00:05:49;7.70;;;5.77;;
5869;SDS011;2961;47.702;9.410;2024-02-04T00:08:16;9.77;;;6.13;;
5869;SDS011;2961;47.702;9.410;2024-02-04T00:10:43;8.60;;;5.13;;
5869;SDS011;2961;47.702;9.410;2024-02-04T00:13:10;6.67;;;5.23;;
5869;SDS011;2961;47.702;9.410;2024-02-04T00:15:36;5.90;;;5.03;;
5869;SDS011;2961;47.702;9.410;2024-02-04T00:18:03;6.57;;;5.57;;
5869;SDS011;2961;47.702;9.410;2024-02-04T00:20:32;6.93;;;5.10;;
5869;SDS011;2961;47.702;9.410;2024-02-04T00:22:59;10.50;;;5.60;;
5869;SDS011;2961;47.702;9.410;2024-02-04T00:25:26;6.57;;;5.70;;
5869;SDS011;2961;47.702;9.410;2024-02-04T00:27:54;8.30;;;5.90;;
5869;SDS011;2961;47.702;9.410;2024-02-04T00:30:21;7.77;;;6.40;;
5869;SDS011;2961;47.702;9.410;2024-02-04T00:32:48;7.20;;;5.70;;
5869;SDS011;2961;47.702;9.410;2024-02-04T00:35:15;8.20;;;6.00;;
5869;SDS011;2961;47.702;9.410;2024-02-04T00:37:43;6.90;;;5.77;;
5869;SDS011;2961;47.702;9.410;2024-02-04T00:40:10;7.87;;;5.63;;
5869;SDS011;2961;47.702;9.410;2024-02-04T00:42:37;8.13;;;6.10;;
5869;SDS011;2961;47.702;9.410;2024-02-04T00:45:04;7.37;;;6.57;;
5869;SDS011;2961;47.702;9.410;2024-02-04T00:47:32;11.30;;;5.80;;
5869;SDS011;2961;47.702;9.410;2024-02-04T00:49:58;8.30;;;6.40;;
5869;SDS011;2961;47.702;9.410;2024-02-04T00:52:25;8.30;;;6.50;;
5869;SDS011;2961;47.702;9.410;2024-02-04T00:54:53;10.10;;;7.10;;
5869;SDS011;2961;47.702;9.410;2024-02-04T00:57:20;9.33;;;6.07;;
5869;SDS011;2961;47.702;9.410;2024-02-04T00:59:47;8.77;;;6.10;;
5869;SDS011;2961;47.702;9.410;2024-02-04T01:02:15;8.63;;;6.53;;
5869;SDS011;2961;47.702;9.410;2024-02-04T01:04:42;11.30;;;5.97;;
5869;SDS011;2961;47.702;9.410;2024-02-04T01:07:09;6.00;;;5.40;;
5869;SDS011;2961;47.702;9.410;2024-02-04T01:09:35;9.40;;;6.30;;
5869;SDS011;2961;47.702;9.410;2024-02-04T01:12:04;9.00;;;6.10;;
5869;SDS011;2961;47.702;9.410;2024-02-04T01:14:31;5.47;;;4.97;;
5869;SDS011;2961;47.702;9.410;2024-02-04T01:16:58;6.40;;;5.20;;
5869;SDS011;2961;47.702;9.410;2024-02-04T01:19:25;11.10;;;6.23;;
5869;SDS011;2961;47.702;9.410;2024-02-04T01:21:52;7.17;;;5.57;;
5869;SDS011;2961;47.702;9.410;2024-02-04T01:24:18;6.27;;;5.60;;
5869;SDS011;2961;47.702;9.410;2024-02-04T01:26:45;5.83;;;4.60;;
5869;SDS011;2961;47.702;9.410;2024-02-04T01:29:13;7.87;;;6.47;;
5869;SDS011;2961;47.702;9.410;2024-02-04T01:31:40;7.53;;;5.90;;
5869;SDS011;2961;47.702;9.410;2024-02-04T01:34:07;7.90;;;5.67;;
5869;SDS011;2961;47.702;9.410;2024-02-04T01:36:34;7.10;;;5.70;;
5869;SDS011;2961;47.702;9.410;2024-02-04T01:39:01;8.17;;;5.90;;
5869;SDS011;2961;47.702;9.410;2024-02-04T01:41:28;7.83;;;5.73;;
5869;SDS011;2961;47.702;9.410;2024-02-04T01:43:55;7.10;;;5.43;;
5869;SDS011;2961;47.702;9.410;2024-02-04T01:46:23;8.00;;;5.60;;
5869;SDS011;2961;47.702;9.410;2024-02-04T01:48:50;6.83;;;5.40;;
5869;SDS011;2961;47.702;9.410;2024-02-04T01:51:17;7.60;;;5.70;;
5869;SDS011;2961;47.702;9.410;2024-02-04T01:53:46;5.07;;;4.50;;
5869;SDS011;2961;47.702;9.410;2024-02-04T01:56:13;6.80;;;5.80;;
5869;SDS011;2961;47.702;9.410;2024-02-04T01:58:41;7.73;;;5.90;;
5869;SDS011;2961;47.702;9.410;2024-02-04T02:01:09;8.60;;;5.70;;
5869;SDS011;2961;47.702;9.410;2024-02-04T02:03:38;6.73;;;5.23;;
5869;SDS011;2961;47.702;9.410;2024-02-04T02:06:05;8.80;;;6.00;;
5869;SDS011;2961;47.702;9.410;2024-02-04T02:08:32;7.50;;;5.50;;
5869;SDS011;2961;47.702;9.410;2024-02-04T02:11:02;7.03;;;5.30;;
5869;SDS011;2961;47.702;9.410;2024-02-04T02:13:34;8.33;;;5.50;;
5869;SDS011;2961;47.702;9.410;2024-02-04T02:16:09;9.03;;;5.57;;
5869;SDS011;2961;47.702;9.410;2024-02-04T02:18:42;13.00;;;5.60;;
5869;SDS011;2961;47.702;9.410;2024-02-04T02:21:16;10.60;;;6.60;;
5869;SDS011;2961;47.702;9.410;2024-02-04T02:23:54;9.43;;;6.47;;
5869;SDS011;2961;47.702;9.410;2024-02-04T02:26:31;16.63;;;8.60;;
5869;SDS011;2961;47.702;9.410;2024-02-04T02:28:58;14.03;;;9.20;;
5869;SDS011;2961;47.702;9.410;2024-02-04T02:31:25;9.67;;;7.03;;
5869;SDS011;2961;47.702;9.410;2024-02-04T02:33:52;10.80;;;7.97;;
5869;SDS011;2961;47.702;9.410;2024-02-04T02:36:20;9.83;;;7.10;;
5869;SDS011;2961;47.702;9.410;2024-02-04T02:38:51;9.20;;;6.57;;
5869;SDS011;2961;47.702;9.410;2024-02-04T02:41:24;10.97;;;6.87;;
5869;SDS011;2961;47.702;9.410;2024-02-04T02:43:57;11.87;;;8.20;;
5869;SDS011;2961;47.702;9.410;2024-02-04T02:46:26;14.63;;;8.17;;
5869;SDS011;2961;47.702;9.410;2024-02-04T02:48:53;12.90;;;9.00;;
5869;SDS011;2961;47.702;9.410;2024-02-04T02:51:20;13.57;;;8.17;;
5869;SDS011;2961;47.702;9.410;2024-02-04T02:53:47;14.43;;;9.60;;
5869;SDS011;2961;47.702;9.410;2024-02-04T02:56:14;12.70;;;8.93;;
5869;SDS011;2961;47.702;9.410;2024-02-04T02:58:41;13.33;;;9.17;;
5869;SDS011;2961;47.702;9.410;2024-02-04T03:01:09;13.10;;;8.60;;
5869;SDS011;2961;47.702;9.410;2024-02-04T03:03:36;15.07;;;9.43;;
5869;SDS011;2961;47.702;9.410;2024-02-04T03:06:03;14.13;;;10.07;;
5869;SDS011;2961;47.702;9.410;2024-02-04T03:08:30;12.60;;;8.80;;
5869;SDS011;2961;47.702;9.410;2024-02-04T03:10:57;19.77;;;9.97;;
5869;SDS011;2961;47.702;9.410;2024-02-04T03:13:24;15.40;;;10.33;;
5869;SDS011;2961;47.702;9.410;2024-02-04T03:15:50;15.30;;;9.73;;
5869;SDS011;2961;47.702;9.410;2024-02-04T03:18:19;13.60;;;10.10;;
5869;SDS011;2961;47.702;9.410;2024-02-04T03:20:45;18.13;;;10.27;;
5869;SDS011;2961;47.702;9.410;2024-02-04T03:23:12;12.47;;;9.23;;
5869;SDS011;2961;47.702;9.410;2024-02-04T03:25:39;13.17;;;10.27;;
5869;SDS011;2961;47.702;9.410;2024-02-04T03:28:06;15.73;;;10.07;;
5869;SDS011;2961;47.702;9.410;2024-02-04T03:30:32;13.03;;;9.60;;
5869;SDS011;2961;47.702;9.410;2024-02-04T03:32:59;13.63;;;9.63;;
5869;SDS011;2961;47.702;9.410;2024-02-04T03:35:27;14.47;;;10.10;;
5869;SDS011;2961;47.702;9.410;2024-02-04T03:37:54;14.13;;;9.13;;
5869;SDS011;2961;47.702;9.410;2024-02-04T03:40:21;14.60;;;9.77;;
5869;SDS011;2961;47.702;9.410;2024-02-04T03:42:49;12.97;;;9.50;;
5869;SDS011;2961;47.702;9.410;2024-02-04T03:45:16;14.30;;;10.13;;
5869;SDS011;2961;47.702;9.410;2024-02-04T03:47:43;14.27;;;9.90;;
5869;SDS011;2961;47.702;9.410;2024-02-04T03:50:10;13.93;;;9.23;;
5869;SDS011;2961;47.702;9.410;2024-02-04T03:52:38;16.33;;;10.00;;
5869;SDS011;2961;47.702;9.410;2024-02-04T03:55:05;13.30;;;8.60;;
5869;SDS011;2961;47.702;9.410;2024-02-04T03:57:32;11.40;;;8.50;;
5869;SDS011;2961;47.702;9.410;2024-02-04T03:59:59;11.17;;;8.20;;
5869;SDS011;2961;47.702;9.410;2024-02-04T04:02:26;13.20;;;9.37;;
5869;SDS011;2961;47.702;9.410;2024-02-04T04:04:53;13.73;;;9.40;;
5869;SDS011;2961;47.702;9.410;2024-02-04T04:07:19;12.43;;;8.10;;
5869;SDS011;2961;47.702;9.410;2024-02-04T04:09:47;13.60;;;8.67;;
5869;SDS011;2961;47.702;9.410;2024-02-04T04:12:14;13.43;;;8.13;;
5869;SDS011;2961;47.702;9.410;2024-02-04T04:14:41;12.13;;;8.83;;
5869;SDS011;2961;47.702;9.410;2024-02-04T04:17:08;10.70;;;8.20;;
5869;SDS011;2961;47.702;9.410;2024-02-04T04:19:34;12.93;;;9.10;;
5869;SDS011;2961;47.702;9.410;2024-02-04T04:22:02;15.00;;;9.30;;
5869;SDS011;2961;47.702;9.410;2024-02-04T04:24:29;14.67;;;9.30;;
5869;SDS011;2961;47.702;9.410;2024-02-04T04:26:57;13.10;;;9.13;;
5869;SDS011;2961;47.702;9.410;2024-02-04T04:29:24;10.63;;;7.80;;
5869;SDS011;2961;47.702;9.410;2024-02-04T04:31:51;13.70;;;8.83;;
5869;SDS011;2961;47.702;9.410;2024-02-04T04:34:18;14.83;;;9.20;;
5869;SDS011;2961;47.702;9.410;2024-02-04T04:36:46;12.20;;;8.77;;
5869;SDS011;2961;47.702;9.410;2024-02-04T04:39:13;13.70;;;8.87;;
5869;SDS011;2961;47.702;9.410;2024-02-04T04:41:44;12.73;;;8.53;;
5869;SDS011;2961;47.702;9.410;2024-02-04T04:44:12;13.43;;;9.53;;
5869;SDS011;2961;47.702;9.410;2024-02-04T04:46:39;11.77;;;9.03;;
5869;SDS011;2961;47.702;9.410;2024-02-04T04:49:06;12.30;;;9.17;;
5869;SDS011;2961;47.702;9.410;2024-02-04T04:51:33;11.87;;;8.93;;
5869;SDS011;2961;47.702;9.410;2024-02-04T04:54:00;12.37;;;9.07;;
5869;SDS011;2961;47.702;9.410;2024-02-04T04:56:26;12.23;;;8.70;;
5869;SDS011;2961;47.702;9.410;2024-02-04T04:58:53;10.83;;;8.67;;
5869;SDS011;2961;47.702;9.410;2024-02-04T05:01:21;13.10;;;9.70;;
5869;SDS011;2961;47.702;9.410;2024-02-04T05:03:48;11.40;;;8.87;;
5869;SDS011;2961;47.702;9.410;2024-02-04T05:06:15;13.17;;;8.73;;
5869;SDS011;2961;47.702;9.410;2024-02-04T05:08:41;14.23;;;9.70;;
5869;SDS011;2961;47.702;9.410;2024-02-04T05:11:08;13.97;;;9.37;;
5869;SDS011;2961;47.702;9.410;2024-02-04T05:13:38;14.30;;;9.30;;
5869;SDS011;2961;47.702;9.410;2024-02-04T05:16:05;14.60;;;9.47;;
5869;SDS011;2961;47.702;9.410;2024-02-04T05:18:33;11.90;;;8.70;;
5869;SDS011;2961;47.702;9.410;2024-02-04T05:21:00;14.07;;;9.13;;
5869;SDS011;2961;47.702;9.410;2024-02-04T05:23:27;13.77;;;9.47;;
5869;SDS011;2961;47.702;9.410;2024-02-04T05:25:54;13.00;;;8.87;;
5869;SDS011;2961;47.702;9.410;2024-02-04T05:28:21;12.27;;;7.93;;
5869;SDS011;2961;47.702;9.410;2024-02-04T05:30:48;12.63;;;7.90;;
5869;SDS011;2961;47.702;9.410;2024-02-04T05:33:14;13.23;;;8.03;;
5869;SDS011;2961;47.702;9.410;2024-02-04T05:35:42;15.27;;;7.77;;
5869;SDS011;2961;47.702;9.410;2024-02-04T05:38:09;9.37;;;7.37;;
5869;SDS011;2961;47.702;9.410;2024-02-04T05:40:36;8.73;;;7.83;;
5869;SDS011;2961;47.702;9.410;2024-02-04T05:43:03;9.20;;;7.50;;
5869;SDS011;2961;47.702;9.410;2024-02-04T05:45:32;10.53;;;7.40;;
5869;SDS011;2961;47.702;9.410;2024-02-04T05:47:59;8.70;;;6.93;;
5869;SDS011;2961;47.702;9.410;2024-02-04T05:50:26;8.23;;;6.50;;
5869;SDS011;2961;47.702;9.410;2024-02-04T05:52:54;8.47;;;5.40;;
5869;SDS011;2961;47.702;9.410;2024-02-04T05:55:21;6.30;;;5.67;;
5869;SDS011;2961;47.702;9.410;2024-02-04T05:57:48;6.00;;;4.87;;
5869;SDS011;2961;47.702;9.410;2024-02-04T06:00:15;9.23;;;4.77;;
5869;SDS011;2961;47.702;9.410;2024-02-04T06:02:42;5.70;;;4.10;;
5869;SDS011;2961;47.702;9.410;2024-02-04T06:05:09;3.70;;;3.40;;
5869;SDS011;2961;47.702;9.410;2024-02-04T06:07:36;4.00;;;3.70;;
5869;SDS011;2961;47.702;9.410;2024-02-04T06:10:04;6.07;;;4.00;;
5869;SDS011;2961;47.702;9.410;2024-02-04T06:12:34;3.97;;;3.60;;
5869;SDS011;2961;47.702;9.410;2024-02-04T06:15:01;4.37;;;3.90;;
5869;SDS011;2961;47.702;9.410;2024-02-04T06:17:28;3.73;;;3.40;;
5869;SDS011;2961;47.702;9.410;2024-02-04T06:19:55;4.03;;;3.80;;
5869;SDS011;2961;47.702;9.410;2024-02-04T06:22:22;4.70;;;4.30;;
5869;SDS011;2961;47.702;9.410;2024-02-04T06:24:49;6.37;;;4.40;;
5869;SDS011;2961;47.702;9.410;2024-02-04T06:27:17;6.07;;;4.10;;
5869;SDS011;2961;47.702;9.410;2024-02-04T06:29:44;7.73;;;5.37;;
5869;SDS011;2961;47.702;9.410;2024-02-04T06:32:11;4.57;;;4.13;;
5869;SDS011;2961;47.702;9.410;2024-02-04T06:34:38;6.00;;;5.27;;
5869;SDS011;2961;47.702;9.410;2024-02-04T06:37:05;5.60;;;5.07;;
5869;SDS011;2961;47.702;9.410;2024-02-04T06:39:32;6.87;;;4.00;;
5869;SDS011;2961;47.702;9.410;2024-02-04T06:41:59;6.63;;;3.50;;
5869;SDS011;2961;47.702;9.410;2024-02-04T06:44:27;4.80;;;4.40;;
5869;SDS011;2961;47.702;9.410;2024-02-04T06:46:53;4.93;;;4.53;;
5869;SDS011;2961;47.702;9.410;2024-02-04T06:49:20;6.50;;;4.00;;
5869;SDS011;2961;47.702;9.410;2024-02-04T06:51:47;3.53;;;3.23;;
5869;SDS011;2961;47.702;9.410;2024-02-04T06:54:14;3.40;;;3.10;;
5869;SDS011;2961;47.702;9.410;2024-02-04T06:56:41;3.33;;;3.03;;
5869;SDS011;2961;47.702;9.410;2024-02-04T06:59:07;3.30;;;3.07;;
5869;SDS011;2961;47.702;9.410;2024-02-04T07:01:35;5.80;;;3.10;;
5869;SDS011;2961;47.702;9.410;2024-02-04T07:04:02;3.07;;;2.87;;
5869;SDS011;2961;47.702;9.410;2024-02-04T07:06:29;3.00;;;2.80;;
5869;SDS011;2961;47.702;9.410;2024-02-04T07:08:56;3.80;;;3.50;;
5869;SDS011;2961;47.702;9.410;2024-02-04T07:11:24;3.60;;;3.30;;
5869;SDS011;2961;47.702;9.410;2024-02-04T07:13:50;3.40;;;3.10;;
5869;SDS011;2961;47.702;9.410;2024-02-04T07:16:23;5.20;;;3.67;;
5869;SDS011;2961;47.702;9.410;2024-02-04T07:18:51;3.97;;;3.67;;
5869;SDS011;2961;47.702;9.410;2024-02-04T07:21:18;5.43;;;4.77;;
5869;SDS011;2961;47.702;9.410;2024-02-04T07:23:45;7.37;;;4.70;;
5869;SDS011;2961;47.702;9.410;2024-02-04T07:26:25;6.07;;;4.60;;
5869;SDS011;2961;47.702;9.410;2024-02-04T07:28:53;6.17;;;5.33;;
5869;SDS011;2961;47.702;9.410;2024-02-04T07:31:19;5.60;;;4.80;;
5869;SDS011;2961;47.702;9.410;2024-02-04T07:33:47;7.87;;;4.60;;
5869;SDS011;2961;47.702;9.410;2024-02-04T07:36:15;6.47;;;4.80;;
5869;SDS011;2961;47.702;9.410;2024-02-04T07:38:42;6.17;;;4.80;;
5869;SDS011;2961;47.702;9.410;2024-02-04T07:41:09;4.50;;;4.10;;
5869;SDS011;2961;47.702;9.410;2024-02-04T07:43:36;7.20;;;5.00;;
5869;SDS011;2961;47.702;9.410;2024-02-04T07:46:03;5.50;;;5.00;;
5869;SDS011;2961;47.702;9.410;2024-02-04T07:48:30;4.90;;;4.17;;
5869;SDS011;2961;47.702;9.410;2024-02-04T07:50:57;4.57;;;3.90;;
5869;SDS011;2961;47.702;9.410;2024-02-04T07:53:25;4.40;;;3.50;;
5869;SDS011;2961;47.702;9.410;2024-02-04T07:55:52;4.53;;;3.87;;
5869;SDS011;2961;47.702;9.410;2024-02-04T07:58:19;4.63;;;3.50;;
5869;SDS011;2961;47.702;9.410;2024-02-04T08:00:45;6.03;;;5.30;;
5869;SDS011;2961;47.702;9.410;2024-02-04T08:03:12;7.87;;;5.53;;
5869;SDS011;2961;47.702;9.410;2024-02-04T08:05:39;6.00;;;5.40;;
5869;SDS011;2961;47.702;9.410;2024-02-04T08:08:06;8.57;;;6.80;;
5869;SDS011;2961;47.702;9.410;2024-02-04T08:10:34;10.43;;;6.70;;
5869;SDS011;2961;47.702;9.410;2024-02-04T08:13:01;9.07;;;6.00;;
5869;SDS011;2961;47.702;9.410;2024-02-04T08:15:28;8.63;;;6.20;;
5869;SDS011;2961;47.702;9.410;2024-02-04T08:17:55;13.73;;;7.20;;
5869;SDS011;2961;47.702;9.410;2024-02-04T08:20:22;10.43;;;6.17;;
5869;SDS011;2961;47.702;9.410;2024-02-04T08:22:49;7.40;;;6.50;;
5869;SDS011;2961;47.702;9.410;2024-02-04T08:25:15;8.13;;;6.40;;
5869;SDS011;2961;47.702;9.410;2024-02-04T08:27:44;12.10;;;6.50;;
5869;SDS011;2961;47.702;9.410;2024-02-04T08:30:10;16.93;;;8.17;;
5869;SDS011;2961;47.702;9.410;2024-02-04T08:32:38;10.67;;;8.37;;
5869;SDS011;2961;47.702;9.410;2024-02-04T08:35:05;11.10;;;8.57;;
5869;SDS011;2961;47.702;9.410;2024-02-04T08:37:32;14.30;;;8.80;;
5869;SDS011;2961;47.702;9.410;2024-02-04T08:40:00;11.53;;;9.03;;
5869;SDS011;2961;47.702;9.410;2024-02-04T08:42:28;12.10;;;9.40;;
5869;SDS011;2961;47.702;9.410;2024-02-04T08:44:56;17.20;;;10.63;;
5869;SDS011;2961;47.702;9.410;2024-02-04T08:47:23;13.03;;;9.50;;
5869;SDS011;2961;47.702;9.410;2024-02-04T08:49:49;12.60;;;8.57;;
5869;SDS011;2961;47.702;9.410;2024-02-04T08:52:16;13.07;;;9.37;;
5869;SDS011;2961;47.702;9.410;2024-02-04T08:54:43;10.90;;;8.90;;
5869;SDS011;2961;47.702;9.410;2024-02-04T08:57:10;12.67;;;8.87;;
5869;SDS011;2961;47.702;9.410;2024-02-04T08:59:36;12.33;;;8.93;;
5869;SDS011;2961;47.702;9.410;2024-02-04T09:02:05;12.60;;;7.07;;
5869;SDS011;2961;47.702;9.410;2024-02-04T09:04:32;11.70;;;6.83;;
5869;SDS011;2961;47.702;9.410;2024-02-04T09:07:05;9.07;;;4.33;;
5869;SDS011;2961;47.702;9.410;2024-02-04T09:09:32;5.77;;;4.07;;
5869;SDS011;2961;47.702;9.410;2024-02-04T09:11:58;6.43;;;4.40;;
5869;SDS011;2961;47.702;9.410;2024-02-04T09:14:25;4.80;;;3.73;;
5869;SDS011;2961;47.702;9.410;2024-02-04T09:16:52;7.83;;;5.43;;
5869;SDS011;2961;47.702;9.410;2024-02-04T09:19:20;5.57;;;4.97;;
5869;SDS011;2961;47.702;9.410;2024-02-04T09:21:49;6.50;;;5.60;;
5869;SDS011;2961;47.702;9.410;2024-02-04T09:24:16;6.43;;;4.70;;
5869;SDS011;2961;47.702;9.410;2024-02-04T09:26:43;9.87;;;6.03;;
5869;SDS011;2961;47.702;9.410;2024-02-04T09:29:09;10.93;;;4.20;;
5869;SDS011;2961;47.702;9.410;2024-02-04T09:31:36;10.10;;;5.30;;
5869;SDS011;2961;47.702;9.410;2024-02-04T09:34:03;7.90;;;4.90;;
5869;SDS011;2961;47.702;9.410;2024-02-04T09:36:31;7.00;;;4.90;;
5869;SDS011;2961;47.702;9.410;2024-02-04T09:38:58;9.70;;;6.03;;
5869;SDS011;2961;47.702;9.410;2024-02-04T09:41:25;9.80;;;5.30;;
5869;SDS011;2961;47.702;9.410;2024-02-04T09:43:52;6.70;;;5.17;;
5869;SDS011;2961;47.702;9.410;2024-02-04T09:46:19;5.03;;;4.63;;
5869;SDS011;2961;47.702;9.410;2024-02-04T09:48:46;6.80;;;4.73;;
5869;SDS011;2961;47.702;9.410;2024-02-04T09:51:15;5.00;;;4.60;;
5869;SDS011;2961;47.702;9.410;2024-02-04T09:53:44;6.43;;;4.20;;
5869;SDS011;2961;47.702;9.410;2024-02-04T09:56:11;5.10;;;4.10;;
5869;SDS011;2961;47.702;9.410;2024-02-04T09:58:42;7.13;;;3.80;;
5869;SDS011;2961;47.702;9.410;2024-02-04T10:01:09;5.83;;;3.80;;
5869;SDS011;2961;47.702;9.410;2024-02-04T10:03:38;5.03;;;3.60;;
5869;SDS011;2961;47.702;9.410;2024-02-04T10:06:05;5.60;;;3.67;;
5869;SDS011;2961;47.702;9.410;2024-02-04T10:08:32;3.47;;;3.17;;
5869;SDS011;2961;47.702;9.410;2024-02-04T10:11:02;3.57;;;3.13;;
5869;SDS011;2961;47.702;9.410;2024-02-04T10:13:29;3.07;;;2.70;;
5869;SDS011;2961;47.702;9.410;2024-02-04T10:15:56;3.30;;;3.10;;
5869;SDS011;2961;47.702;9.410;2024-02-04T10:18:23;6.33;;;3.20;;
5869;SDS011;2961;47.702;9.410;2024-02-04T10:20:51;6.30;;;3.57;;
5869;SDS011;2961;47.702;9.410;2024-02-04T10:23:18;3.57;;;2.90;;
5869;SDS011;2961;47.702;9.410;2024-02-04T10:25:44;4.50;;;3.40;;
5869;SDS011;2961;47.702;9.410;2024-02-04T10:28:12;8.97;;;3.70;;
5869;SDS011;2961;47.702;9.410;2024-02-04T10:30:41;5.70;;;2.60;;
5869;SDS011;2961;47.702;9.410;2024-02-04T10:33:08;3.53;;;2.90;;
5869;SDS011;2961;47.702;9.410;2024-02-04T10:35:35;3.60;;;3.07;;
5869;SDS011;2961;47.702;9.410;2024-02-04T10:38:02;5.90;;;3.90;;
5869;SDS011;2961;47.702;9.410;2024-02-04T10:40:28;3.53;;;3.20;;
5869;SDS011;2961;47.702;9.410;2024-02-04T10:42:56;5.43;;;3.60;;
5869;SDS011;2961;47.702;9.410;2024-02-04T10:45:32;3.53;;;3.23;;
5869;SDS011;2961;47.702;9.410;2024-02-04T10:48:00;5.13;;;3.73;;
5869;SDS011;2961;47.702;9.410;2024-02-04T10:50:29;7.10;;;5.67;;
5869;SDS011;2961;47.702;9.410;2024-02-04T10:52:58;5.20;;;3.00;;
5869;SDS011;2961;47.702;9.410;2024-02-04T10:55:30;4.30;;;2.80;;
5869;SDS011;2961;47.702;9.410;2024-02-04T10:57:57;9.23;;;3.53;;
5869;SDS011;2961;47.702;9.410;2024-02-04T11:00:25;3.20;;;2.93;;
5869;SDS011;2961;47.702;9.410;2024-02-04T11:02:54;4.90;;;3.47;;
5869;SDS011;2961;47.702;9.410;2024-02-04T11:05:22;3.43;;;2.63;;
5869;SDS011;2961;47.702;9.410;2024-02-04T11:07:50;3.43;;;3.13;;
5869;SDS011;2961;47.702;9.410;2024-02-04T11:10:18;2.70;;;2.50;;
5869;SDS011;2961;47.702;9.410;2024-02-04T11:12:45;5.73;;;3.03;;
5869;SDS011;2961;47.702;9.410;2024-02-04T11:15:13;8.03;;;2.27;;
5869;SDS011;2961;47.702;9.410;2024-02-04T11:17:46;3.43;;;2.57;;
5869;SDS011;2961;47.702;9.410;2024-02-04T11:20:33;3.87;;;3.40;;
5869;SDS011;2961;47.702;9.410;2024-02-04T11:23:17;2.57;;;2.30;;
5869;SDS011;2961;47.702;9.410;2024-02-04T11:25:57;3.03;;;2.50;;
5869;SDS011;2961;47.702;9.410;2024-02-04T11:28:25;5.90;;;2.70;;
5869;SDS011;2961;47.702;9.410;2024-02-04T11:30:53;4.63;;;2.70;;
5869;SDS011;2961;47.702;9.410;2024-02-04T11:33:21;2.60;;;2.30;;
5869;SDS011;2961;47.702;9.410;2024-02-04T11:35:58;3.50;;;2.40;;
5869;SDS011;2961;47.702;9.410;2024-02-04T11:38:29;6.60;;;2.47;;
5869;SDS011;2961;47.702;9.410;2024-02-04T11:40:57;6.20;;;2.50;;
5869;SDS011;2961;47.702;9.410;2024-02-04T11:43:24;8.13;;;2.80;;
5869;SDS011;2961;47.702;9.410;2024-02-04T11:45:51;3.00;;;2.77;;
5869;SDS011;2961;47.702;9.410;2024-02-04T11:48:19;7.17;;;2.67;;
5869;SDS011;2961;47.702;9.410;2024-02-04T11:50:53;2.90;;;2.23;;
5869;SDS011;2961;47.702;9.410;2024-02-04T11:53:20;6.13;;;2.47;;
5869;SDS011;2961;47.702;9.410;2024-02-04T11:55:48;2.30;;;2.10;;
5869;SDS011;2961;47.702;9.410;2024-02-04T11:58:18;7.53;;;2.73;;
5869;SDS011;2961;47.702;9.410;2024-02-04T12:00:45;3.80;;;2.70;;
5869;SDS011;2961;47.702;9.410;2024-02-04T12:03:14;7.80;;;2.90;;
5869;SDS011;2961;47.702;9.410;2024-02-04T12:05:41;4.27;;;2.27;;
5869;SDS011;2961;47.702;9.410;2024-02-04T12:08:11;6.13;;;3.30;;
5869;SDS011;2961;47.702;9.410;2024-02-04T12:10:38;3.30;;;2.23;;
5869;SDS011;2961;47.702;9.410;2024-02-04T12:13:06;3.10;;;2.70;;
5869;SDS011;2961;47.702;9.410;2024-02-04T12:15:34;6.10;;;3.53;;
5869;SDS011;2961;47.702;9.410;2024-02-04T12:18:07;3.38;;;3.08;;
5869;SDS011;2961;47.702;9.410;2024-02-04T12:20:35;2.83;;;2.30;;
5869;SDS011;2961;47.702;9.410;2024-02-04T12:23:02;2.83;;;2.63;;
5869;SDS011;2961;47.702;9.410;2024-02-04T12:25:31;3.80;;;2.10;;
5869;SDS011;2961;47.702;9.410;2024-02-04T12:27:59;5.53;;;2.40;;
5869;SDS011;2961;47.702;9.410;2024-02-04T12:30:28;4.90;;;2.80;;
5869;SDS011;2961;47.702;9.410;2024-02-04T12:32:56;4.90;;;2.50;;
5869;SDS011;2961;47.702;9.410;2024-02-04T12:35:23;2.93;;;2.63;;
5869;SDS011;2961;47.702;9.410;2024-02-04T12:37:50;3.40;;;2.60;;
5869;SDS011;2961;47.702;9.410;2024-02-04T12:40:20;3.37;;;2.93;;
5869;SDS011;2961;47.702;9.410;2024-02-04T12:42:52;3.10;;;2.80;;
5869;SDS011;2961;47.702;9.410;2024-02-04T12:45:21;3.53;;;2.10;;
5869;SDS011;2961;47.702;9.410;2024-02-04T12:47:51;4.03;;;2.33;;
5869;SDS011;2961;47.702;9.410;2024-02-04T12:50:18;5.07;;;2.40;;
5869;SDS011;2961;47.702;9.410;2024-02-04T12:52:46;2.50;;;2.30;;
5869;SDS011;2961;47.702;9.410;2024-02-04T12:55:20;2.30;;;2.10;;
5869;SDS011;2961;47.702;9.410;2024-02-04T12:57:48;7.10;;;2.33;;
5869;SDS011;2961;47.702;9.410;2024-02-04T13:00:18;5.00;;;2.60;;
5869;SDS011;2961;47.702;9.410;2024-02-04T13:02:48;3.13;;;2.33;;
5869;SDS011;2961;47.702;9.410;2024-02-04T13:05:22;6.53;;;2.77;;
5869;SDS011;2961;47.702;9.410;2024-02-04T13:07:51;5.10;;;2.03;;
5869;SDS011;2961;47.702;9.410;2024-02-04T13:10:20;3.20;;;2.57;;
5869;SDS011;2961;47.702;9.410;2024-02-04T13:12:57;5.20;;;2.10;;
5869;SDS011;2961;47.702;9.410;2024-02-04T13:15:26;3.63;;;1.97;;
5869;SDS011;2961;47.702;9.410;2024-02-04T13:17:54;5.47;;;2.70;;
5869;SDS011;2961;47.702;9.410;2024-02-04T13:20:21;3.33;;;2.60;;
5869;SDS011;2961;47.702;9.410;2024-02-04T13:22:48;3.03;;;2.57;;
5869;SDS011;2961;47.702;9.410;2024-02-04T13:25:14;2.30;;;1.90;;
5869;SDS011;2961;47.702;9.410;2024-02-04T13:27:41;3.37;;;2.37;;
5869;SDS011;2961;47.702;9.410;2024-02-04T13:30:08;4.87;;;4.43;;
5869;SDS011;2961;47.702;9.410;2024-02-04T13:32:38;7.90;;;5.20;;
5869;SDS011;2961;47.702;9.410;2024-02-04T13:35:07;11.00;;;5.80;;
5869;SDS011;2961;47.702;9.410;2024-02-04T13:37:35;18.50;;;7.30;;
5869;SDS011;2961;47.702;9.410;2024-02-04T13:40:02;7.17;;;5.53;;
5869;SDS011;2961;47.702;9.410;2024-02-04T13:42:44;9.30;;;5.50;;
5869;SDS011;2961;47.702;9.410;2024-02-04T13:45:11;7.90;;;6.00;;
5869;SDS011;2961;47.702;9.410;2024-02-04T13:47:40;13.43;;;7.30;;
5869;SDS011;2961;47.702;9.410;2024-02-04T13:50:07;10.90;;;6.83;;
5869;SDS011;2961;47.702;9.410;2024-02-04T13:52:35;7.73;;;6.13;;
5869;SDS011;2961;47.702;9.410;2024-02-04T13:55:02;10.50;;;7.10;;
5869;SDS011;2961;47.702;9.410;2024-02-04T13:57:30;9.37;;;6.73;;
5869;SDS011;2961;47.702;9.410;2024-02-04T13:59:57;8.17;;;5.90;;
5869;SDS011;2961;47.702;9.410;2024-02-04T14:02:23;7.10;;;6.37;;
5869;SDS011;2961;47.702;9.410;2024-02-04T14:04:52;11.47;;;7.33;;
5869;SDS011;2961;47.702;9.410;2024-02-04T14:07:19;8.90;;;6.27;;
5869;SDS011;2961;47.702;9.410;2024-02-04T14:09:46;9.07;;;6.57;;
5869;SDS011;2961;47.702;9.410;2024-02-04T14:12:13;9.03;;;6.87;;
5869;SDS011;2961;47.702;9.410;2024-02-04T14:14:39;10.27;;;6.70;;
5869;SDS011;2961;47.702;9.410;2024-02-04T14:17:06;9.50;;;6.70;;
5869;SDS011;2961;47.702;9.410;2024-02-04T14:19:33;9.70;;;5.43;;
5869;SDS011;2961;47.702;9.410;2024-02-04T14:22:01;7.83;;;5.37;;
5869;SDS011;2961;47.702;9.410;2024-02-04T14:24:28;9.03;;;6.00;;
5869;SDS011;2961;47.702;9.410;2024-02-04T14:26:58;6.10;;;5.50;;
5869;SDS011;2961;47.702;9.410;2024-02-04T14:29:25;7.67;;;6.07;;
5869;SDS011;2961;47.702;9.410;2024-02-04T14:31:52;12.97;;;5.87;;
5869;SDS011;2961;47.702;9.410;2024-02-04T14:34:20;7.50;;;5.83;;
5869;SDS011;2961;47.702;9.410;2024-02-04T14:36:47;13.20;;;7.27;;
5869;SDS011;2961;47.702;9.410;2024-02-04T14:39:16;7.10;;;5.17;;
5869;SDS011;2961;47.702;9.410;2024-02-04T14:41:43;10.47;;;5.73;;
5869;SDS011;2961;47.702;9.410;2024-02-04T14:44:10;5.70;;;4.90;;
5869;SDS011;2961;47.702;9.410;2024-02-04T14:46:36;8.27;;;5.30;;
5869;SDS011;2961;47.702;9.410;2024-02-04T14:49:04;7.10;;;5.27;;
5869;SDS011;2961;47.702;9.410;2024-02-04T14:51:31;9.60;;;5.50;;
5869;SDS011;2961;47.702;9.410;2024-02-04T14:53:58;7.40;;;5.00;;
5869;SDS011;2961;47.702;9.410;2024-02-04T14:56:26;8.30;;;4.60;;
5869;SDS011;2961;47.702;9.410;2024-02-04T14:58:53;9.40;;;5.43;;
5869;SDS011;2961;47.702;9.410;2024-02-04T15:01:20;7.60;;;5.37;;
5869;SDS011;2961;47.702;9.410;2024-02-04T15:03:47;12.27;;;4.90;;
5869;SDS011;2961;47.702;9.410;2024-02-04T15:06:14;8.60;;;5.87;;
5869;SDS011;2961;47.702;9.410;2024-02-04T15:08:41;9.23;;;5.70;;
5869;SDS011;2961;47.702;9.410;2024-02-04T15:11:08;9.77;;;6.50;;
5869;SDS011;2961;47.702;9.410;2024-02-04T15:13:36;9.57;;;5.83;;